Time;durP1;ratioP1;P1;durP2;ratioP2;P2;SDS_P1;SDS_P2;PMS_P1;PMS_P2;Temp;Humidity;BMP_temperature;BMP_pressure;BME280_temperature;BME280_humidity;BME280_pressure;Samples;Min_cycle;Max_cycle;Signal;HPM_P1;HPM_P2
2022/03/25 00:00:15;;;;;;;17.20;10.70;;;23.90;44.40;;;;;;214976;1296;25631;-54
2022/03/25 00:05:39;;;;;;;16.90;11.00;;;23.70;44.20;;;;;;215390;1296;25596;-52
2022/03/25 00:10:43;;;;;;;15.50;10.40;;;23.60;44.50;;;;;;214756;1296;25770;-55
2022/03/25 00:15:47;;;;;;;18.40;10.70;;;23.40;44.70;;;;;;215033;1296;25717;-54
2022/03/25 00:20:50;;;;;;;17.20;10.80;;;23.30;45.10;;;;;;215322;1296;26876;-54
2022/03/25 00:25:56;;;;;;;19.40;10.60;;;23.30;45.20;;;;;;215408;1296;25419;-54
2022/03/25 00:30:59;;;;;;;16.90;11.30;;;23.30;45.90;;;;;;215096;1296;22578;-58
2022/03/25 00:36:05;;;;;;;19.20;11.50;;;23.20;45.70;;;;;;215124;1296;22605;-55
2022/03/25 00:41:11;;;;;;;21.60;12.20;;;23.20;45.70;;;;;;215394;1296;22855;-56
2022/03/25 00:46:15;;;;;;;23.60;12.10;;;23.10;46.10;;;;;;215489;1296;22781;-53
2022/03/25 00:51:21;;;;;;;20.10;12.90;;;23.00;45.80;;;;;;215499;1296;22695;-57
2022/03/25 00:56:24;;;;;;;19.40;12.50;;;23.00;45.80;;;;;;215116;1296;25608;-57
2022/03/25 01:01:28;;;;;;;19.50;12.10;;;22.90;45.70;;;;;;215510;1296;24452;-55
2022/03/25 01:06:31;;;;;;;21.30;11.90;;;22.90;45.70;;;;;;215389;1296;22605;-54
2022/03/25 01:11:48;;;;;;;18.80;11.50;;;22.80;45.80;;;;;;215443;1296;25390;-52
2022/03/25 01:16:52;;;;;;;20.40;12.50;;;22.80;46.20;;;;;;215296;1296;22564;-55
2022/03/25 01:21:58;;;;;;;20.10;12.70;;;22.70;45.80;;;;;;215141;1296;25422;-55
2022/03/25 01:27:04;;;;;;;24.00;13.40;;;22.60;45.80;;;;;;215643;1296;22564;-56
2022/03/25 01:32:08;;;;;;;20.10;13.10;;;22.60;45.80;;;;;;215472;1296;25296;-53
2022/03/25 01:37:12;;;;;;;18.90;11.90;;;22.60;45.90;;;;;;215439;1296;22560;-53
2022/03/25 01:42:15;;;;;;;19.50;12.80;;;22.60;45.90;;;;;;215557;1296;23958;-51
2022/03/25 01:47:28;;;;;;;19.10;12.10;;;22.50;46.10;;;;;;215780;1296;22644;-56
2022/03/25 01:52:34;;;;;;;20.00;11.40;;;22.70;45.90;;;;;;215620;1296;24444;-60
2022/03/25 01:57:39;;;;;;;19.70;11.80;;;23.10;45.60;;;;;;215125;1296;23711;-52
2022/03/25 02:02:43;;;;;;;32.10;14.70;;;23.40;44.70;;;;;;218909;1283;68260;-55
2022/03/25 02:07:48;;;;;;;19.70;12.70;;;23.70;44.10;;;;;;215603;1291;24432;-51
2022/03/25 02:12:53;;;;;;;21.40;12.60;;;23.90;43.70;;;;;;216075;1290;22596;-54
2022/03/25 02:18:01;;;;;;;18.50;12.50;;;24.10;43.70;;;;;;216042;1296;22876;-53
2022/03/25 02:23:06;;;;;;;19.90;13.10;;;24.30;43.40;;;;;;215908;1295;22586;-56
2022/03/25 02:28:10;;;;;;;21.10;12.70;;;24.30;43.30;;;;;;215772;1291;22563;-51
2022/03/25 02:33:16;;;;;;;19.50;13.00;;;24.40;43.30;;;;;;215840;1291;25524;-52
2022/03/25 02:38:22;;;;;;;18.30;13.00;;;24.40;43.30;;;;;;215768;1291;24546;-56
2022/03/25 02:43:25;;;;;;;20.40;13.00;;;24.30;43.70;;;;;;215798;1294;25347;-54
2022/03/25 02:48:37;;;;;;;20.70;13.60;;;24.20;43.60;;;;;;216158;1291;25443;-53
2022/03/25 02:53:41;;;;;;;18.40;12.20;;;24.10;44.40;;;;;;216240;1291;22569;-54
2022/03/25 02:58:45;;;;;;;21.30;12.40;;;23.90;44.40;;;;;;216246;1291;26606;-54
2022/03/25 03:03:49;;;;;;;20.50;13.40;;;23.80;44.70;;;;;;216189;1290;22563;-54
2022/03/25 03:08:53;;;;;;;19.00;13.40;;;23.70;45.40;;;;;;216280;1293;25368;-52
2022/03/25 03:13:58;;;;;;;20.60;14.30;;;23.60;45.50;;;;;;215993;1294;22569;-51
2022/03/25 03:19:02;;;;;;;21.40;14.50;;;23.60;45.20;;;;;;215897;1293;25510;-55
2022/03/25 03:24:05;;;;;;;18.80;13.30;;;23.50;45.10;;;;;;215983;1293;25270;-52
2022/03/25 03:29:09;;;;;;;18.70;13.30;;;23.50;45.30;;;;;;216101;1294;26519;-52
2022/03/25 03:34:12;;;;;;;21.30;14.50;;;23.30;45.10;;;;;;216128;1294;22489;-53
2022/03/25 03:39:16;;;;;;;21.20;14.20;;;23.30;45.20;;;;;;216050;1294;22664;-56
2022/03/25 03:44:20;;;;;;;20.80;13.50;;;23.20;45.20;;;;;;216057;1294;25417;-53
2022/03/25 03:49:23;;;;;;;21.00;13.30;;;23.20;44.90;;;;;;215898;1294;22564;-56
2022/03/25 03:54:27;;;;;;;23.80;14.10;;;23.10;45.20;;;;;;216104;1292;22561;-51
2022/03/25 03:59:50;;;;;;;20.60;13.50;;;23.10;45.10;;;;;;216123;1294;25327;-54
2022/03/25 04:04:54;;;;;;;18.80;12.60;;;23.00;45.20;;;;;;216204;1294;25363;-55
2022/03/25 04:10:02;;;;;;;23.70;14.40;;;22.90;45.10;;;;;;215940;1294;23796;-57
2022/03/25 04:15:27;;;;;;;21.70;13.80;;;22.90;45.30;;;;;;215764;1294;24360;-52
2022/03/25 04:20:59;;;;;;;22.80;13.60;;;22.80;45.30;;;;;;215934;1293;24577;-55
2022/03/25 04:26:06;;;;;;;22.50;14.00;;;22.70;45.50;;;;;;215983;1294;24479;-54
2022/03/25 04:31:10;;;;;;;21.90;14.60;;;22.60;45.50;;;;;;216009;1294;26612;-55
2022/03/25 04:36:14;;;;;;;21.20;14.50;;;22.70;45.60;;;;;;216103;1296;22617;-54
2022/03/25 04:41:18;;;;;;;23.00;14.70;;;22.60;45.60;;;;;;216189;1294;26141;-54
2022/03/25 04:46:21;;;;;;;23.70;14.80;;;22.50;46.00;;;;;;215796;1294;287758;-53
2022/03/25 04:51:25;;;;;;;21.20;14.10;;;22.50;45.70;;;;;;216227;1293;25455;-54
2022/03/25 04:56:29;;;;;;;22.10;14.30;;;22.40;46.10;;;;;;215923;1294;23858;-53
2022/03/25 05:01:32;;;;;;;23.10;14.10;;;22.40;46.20;;;;;;215848;1294;22588;-53
2022/03/25 05:06:36;;;;;;;26.20;15.30;;;22.40;45.90;;;;;;215930;1293;22800;-51
2022/03/25 05:11:40;;;;;;;22.60;14.60;;;22.30;45.90;;;;;;215942;1294;22570;-51
2022/03/25 05:16:44;;;;;;;24.70;14.40;;;22.20;45.90;;;;;;216117;1293;24504;-52
2022/03/25 05:21:48;;;;;;;24.00;14.60;;;22.30;45.60;;;;;;215798;1293;25332;-51
2022/03/25 05:26:53;;;;;;;22.70;13.90;;;22.70;45.30;;;;;;215916;1293;22588;-53
2022/03/25 05:31:56;;;;;;;24.60;13.30;;;23.00;44.40;;;;;;215902;1293;24069;-54
2022/03/25 05:37:00;;;;;;;19.00;12.70;;;23.30;44.20;;;;;;216033;1293;22562;-52
2022/03/25 05:42:04;;;;;;;22.00;13.90;;;23.50;43.30;;;;;;215993;1293;23915;-55
2022/03/25 05:47:07;;;;;;;19.80;13.70;;;23.70;43.00;;;;;;215849;1293;22877;-54
2022/03/25 05:52:11;;;;;;;20.90;12.90;;;23.70;42.70;;;;;;216179;1293;22598;-53
2022/03/25 05:57:15;;;;;;;21.00;13.70;;;23.90;42.60;;;;;;216122;1293;25730;-54
2022/03/25 06:02:19;;;;;;;21.10;13.80;;;23.90;42.60;;;;;;215587;1293;25545;-55
2022/03/25 06:07:24;;;;;;;21.30;13.60;;;23.90;42.30;;;;;;216066;1293;24332;-52
2022/03/25 06:12:29;;;;;;;22.20;13.40;;;24.00;42.30;;;;;;216339;1293;25690;-54
2022/03/25 06:17:50;;;;;;;18.80;13.00;;;24.00;41.90;;;;;;215963;1293;23946;-53
2022/03/25 06:22:56;;;;;;;21.50;13.80;;;24.10;42.30;;;;;;215930;1294;24394;-53
2022/03/25 06:28:02;;;;;;;21.00;13.40;;;24.10;42.20;;;;;;215868;1293;22571;-53
2022/03/25 06:33:10;;;;;;;22.70;14.20;;;24.10;41.90;;;;;;215847;1293;22589;-57
2022/03/25 06:38:14;;;;;;;21.70;14.60;;;24.20;41.80;;;;;;215868;1293;22717;-56
2022/03/25 06:43:18;;;;;;;25.80;13.70;;;24.20;42.00;;;;;;215994;1293;22607;-56
2022/03/25 06:48:21;;;;;;;23.60;13.80;;;24.10;42.40;;;;;;215849;1294;23087;-53
2022/03/25 06:53:26;;;;;;;21.00;13.80;;;24.10;42.80;;;;;;215926;1293;22588;-58
2022/03/25 06:58:31;;;;;;;21.10;12.90;;;24.10;43.10;;;;;;215888;1293;22583;-54
2022/03/25 07:03:35;;;;;;;22.70;13.40;;;23.90;43.40;;;;;;215851;1293;22591;-53
2022/03/25 07:08:39;;;;;;;25.50;12.70;;;23.80;43.90;;;;;;215886;1294;25552;-57
2022/03/25 07:13:44;;;;;;;25.90;13.50;;;23.80;44.60;;;;;;215992;1294;23002;-57
2022/03/25 07:18:49;;;;;;;25.20;12.90;;;23.70;45.20;;;;;;215556;1296;23094;-56
2022/03/25 07:23:52;;;;;;;20.60;12.10;;;23.60;44.90;;;;;;216165;1294;22647;-53
2022/03/25 07:28:56;;;;;;;29.00;13.70;;;23.60;45.60;;;;;;215877;1293;24418;-57
2022/03/25 07:34:00;;;;;;;27.60;14.00;;;23.50;45.70;;;;;;215460;1294;24359;-55
2022/03/25 07:39:04;;;;;;;27.90;13.10;;;23.50;46.10;;;;;;215746;1294;25464;-56
2022/03/25 07:44:07;;;;;;;23.40;12.70;;;23.40;46.70;;;;;;215920;1293;24348;-56
2022/03/25 07:49:11;;;;;;;25.00;12.70;;;23.30;46.30;;;;;;215916;1293;24335;-57
2022/03/25 07:54:14;;;;;;;28.00;12.30;;;23.30;46.40;;;;;;215853;1294;22582;-59
2022/03/25 07:59:19;;;;;;;21.90;12.50;;;23.30;46.30;;;;;;215719;1293;25665;-56
2022/03/25 08:04:24;;;;;;;27.30;13.80;;;23.20;46.20;;;;;;214999;1296;22592;-56
2022/03/25 08:09:30;;;;;;;23.70;13.30;;;23.20;46.00;;;;;;216156;1293;22801;-61
2022/03/25 08:14:34;;;;;;;23.20;13.30;;;23.20;46.00;;;;;;215641;1293;22549;-59
2022/03/25 08:19:38;;;;;;;25.10;13.00;;;23.10;45.80;;;;;;215629;1293;24275;-56
2022/03/25 08:30:04;;;;;;;22.30;12.10;;;23.10;45.80;;;;;;215710;1293;25102;-58
2022/03/25 08:35:12;;;;;;;21.50;12.80;;;23.10;45.80;;;;;;215655;1293;22582;-56
2022/03/25 08:40:16;;;;;;;19.80;11.70;;;23.10;45.70;;;;;;215556;1296;27106;-56
2022/03/25 08:45:24;;;;;;;23.90;13.00;;;23.10;46.30;;;;;;215485;1293;24265;-56
2022/03/25 08:50:28;;;;;;;25.40;13.00;;;23.10;45.50;;;;;;215587;1293;24304;-56
2022/03/25 08:55:38;;;;;;;19.30;12.40;;;23.10;45.80;;;;;;215273;1296;23046;-56
2022/03/25 09:00:52;;;;;;;23.20;12.60;;;23.20;45.50;;;;;;215473;1294;24336;-55
2022/03/25 09:06:17;;;;;;;20.20;11.90;;;23.20;45.70;;;;;;215911;1293;23189;-56
2022/03/25 09:11:22;;;;;;;17.30;12.40;;;23.20;45.60;;;;;;215098;1296;22589;-57
2022/03/25 09:16:26;;;;;;;20.00;11.40;;;23.20;45.60;;;;;;215646;1293;24122;-55
2022/03/25 09:21:30;;;;;;;20.90;11.90;;;23.20;45.90;;;;;;215901;1293;24430;-53
2022/03/25 09:26:36;;;;;;;22.20;12.40;;;23.30;45.60;;;;;;215788;1294;25644;-52
2022/03/25 09:31:43;;;;;;;21.00;11.70;;;23.30;45.60;;;;;;216017;1294;22587;-56
2022/03/25 09:36:53;;;;;;;18.50;11.50;;;23.30;45.30;;;;;;215522;1293;22575;-58
2022/03/25 09:41:59;;;;;;;18.40;10.90;;;23.30;45.40;;;;;;216046;1294;22523;-56
2022/03/25 09:47:03;;;;;;;20.20;10.90;;;23.40;45.20;;;;;;215901;1294;24237;-54
2022/03/25 09:52:11;;;;;;;17.40;10.80;;;23.40;45.20;;;;;;215640;1296;24421;-56
2022/03/25 09:57:42;;;;;;;18.30;11.10;;;23.40;45.00;;;;;;215959;1293;22737;-56
2022/03/25 10:02:48;;;;;;;19.40;11.30;;;23.50;44.90;;;;;;215909;1293;24015;-56
2022/03/25 10:07:59;;;;;;;17.20;10.40;;;23.50;45.20;;;;;;216189;1293;22797;-54
2022/03/25 10:13:08;;;;;;;18.90;11.70;;;23.60;44.90;;;;;;216165;1293;26005;-57
2022/03/25 10:18:12;;;;;;;19.00;11.50;;;23.60;44.70;;;;;;216059;1293;26977;-57
2022/03/25 10:23:20;;;;;;;16.40;10.50;;;23.60;44.70;;;;;;216085;1294;25364;-52
2022/03/25 10:28:44;;;;;;;17.70;11.00;;;23.60;45.00;;;;;;215621;1293;22577;-57
2022/03/25 10:33:57;;;;;;;18.00;10.30;;;23.70;44.60;;;;;;216178;1293;23062;-61
2022/03/25 10:39:27;;;;;;;15.20;10.60;;;23.70;44.50;;;;;;215735;1293;22574;-60
2022/03/25 10:44:40;;;;;;;16.50;10.40;;;23.80;45.00;;;;;;215644;1293;24353;-57
2022/03/25 10:49:46;;;;;;;16.30;10.10;;;23.80;44.30;;;;;;215174;1296;22737;-56
2022/03/25 10:55:18;;;;;;;15.40;11.00;;;23.80;44.30;;;;;;215590;1293;24375;-56
2022/03/25 11:00:36;;;;;;;16.90;10.30;;;23.80;44.30;;;;;;215850;1293;24723;-54
2022/03/25 11:05:49;;;;;;;14.80;9.80;;;23.90;44.30;;;;;;215564;1296;22562;-55
2022/03/25 11:10:58;;;;;;;17.00;11.10;;;23.90;44.50;;;;;;215375;1293;22702;-58
2022/03/25 11:16:05;;;;;;;16.60;10.50;;;23.90;44.40;;;;;;215999;1294;23990;-57
2022/03/25 11:21:15;;;;;;;;;;;23.90;44.90;;;;;;215729;1293;25327;-57
2022/03/25 11:26:23;;;;;;;16.40;10.20;;;24.00;44.30;;;;;;215497;1293;24357;-57
2022/03/25 11:32:06;;;;;;;16.00;10.60;;;23.90;42.70;;;;;;215816;1293;24278;-57
2022/03/25 11:37:34;;;;;;;16.80;11.00;;;23.90;40.80;;;;;;215890;1293;22563;-58
2022/03/25 11:42:43;;;;;;;23.10;19.20;;;23.90;38.60;;;;;;215572;1296;22576;-55
2022/03/25 11:48:09;;;;;;;17.30;12.30;;;24.00;39.50;;;;;;215463;1296;25594;-56
2022/03/25 11:53:13;;;;;;;21.50;17.50;;;24.00;40.40;;;;;;215300;1296;26560;-54
2022/03/25 11:58:16;;;;;;;19.80;12.80;;;24.10;40.90;;;;;;215527;1293;23062;-55
2022/03/25 12:03:42;;;;;;;19.40;12.90;;;24.10;41.00;;;;;;215650;1293;24172;-58
2022/03/25 12:09:06;;;;;;;23.40;17.50;;;24.10;41.60;;;;;;215952;1293;22596;-55
2022/03/25 12:14:10;;;;;;;22.40;15.40;;;24.10;43.00;;;;;;215819;1293;24091;-57
2022/03/25 12:19:26;;;;;;;17.80;12.10;;;24.20;43.50;;;;;;216009;1294;23119;-56
2022/03/25 12:24:31;;;;;;;17.90;12.00;;;24.20;41.90;;;;;;216067;1293;22599;-56
2022/03/25 12:29:38;;;;;;;14.60;10.10;;;24.20;42.50;;;;;;215947;1293;25397;-56
2022/03/25 12:35:10;;;;;;;15.40;9.80;;;24.30;42.40;;;;;;216054;1293;22563;-55
2022/03/25 12:40:19;;;;;;;14.50;10.60;;;24.20;42.70;;;;;;215783;1293;25373;-55
2022/03/25 12:45:37;;;;;;;14.70;11.20;;;24.30;44.60;;;;;;215547;1293;22585;-58
2022/03/25 12:50:45;;;;;;;15.40;11.10;;;24.40;44.50;;;;;;215052;1294;22665;-61
2022/03/25 12:55:49;;;;;;;17.30;10.60;;;24.40;45.00;;;;;;215994;1293;22843;-58
2022/03/25 13:00:57;;;;;;;16.70;13.00;;;24.40;44.90;;;;;;215366;1296;22576;-54
2022/03/25 13:06:12;;;;;;;16.80;12.80;;;24.50;44.70;;;;;;215698;1294;22571;-56
2022/03/25 13:11:18;;;;;;;17.80;12.30;;;24.50;44.90;;;;;;215833;1293;22795;-58
2022/03/25 13:16:24;;;;;;;18.00;11.80;;;24.50;44.90;;;;;;215858;1293;24546;-57
2022/03/25 13:21:28;;;;;;;14.80;10.90;;;24.50;45.20;;;;;;215918;1293;23138;-57
2022/03/25 13:26:32;;;;;;;14.70;11.20;;;24.50;44.90;;;;;;216115;1294;22718;-58
2022/03/25 13:31:35;;;;;;;15.50;10.30;;;24.40;44.00;;;;;;215948;1293;25633;-56
2022/03/25 13:36:40;;;;;;;27.00;11.50;;;24.30;42.40;;;;;;216020;1294;22888;-61
2022/03/25 13:41:45;;;;;;;26.20;11.60;;;24.40;42.30;;;;;;216193;1294;22601;-59
2022/03/25 13:46:49;;;;;;;20.90;11.40;;;24.30;41.00;;;;;;215531;1293;22661;-58
2022/03/25 13:52:07;;;;;;;19.00;11.90;;;24.20;37.90;;;;;;215931;1293;22585;-57
2022/03/25 13:57:16;;;;;;;16.80;10.30;;;24.20;36.90;;;;;;215960;1293;25603;-59
2022/03/25 14:02:26;;;;;;;18.10;10.70;;;24.20;37.60;;;;;;215920;1293;25286;-55
2022/03/25 14:07:37;;;;;;;17.50;9.80;;;24.30;36.10;;;;;;216113;1293;22532;-57
2022/03/25 14:12:41;;;;;;;14.60;9.00;;;24.30;36.50;;;;;;216124;1294;24272;-61
2022/03/25 14:17:50;;;;;;;16.40;9.60;;;24.40;37.50;;;;;;215957;1294;25352;-56
2022/03/25 14:22:56;;;;;;;32.50;9.50;;;24.40;38.20;;;;;;215999;1293;25651;-57
2022/03/25 14:28:10;;;;;;;17.00;10.00;;;24.40;38.90;;;;;;215902;1293;22655;-55
2022/03/25 14:33:14;;;;;;;12.90;9.00;;;24.40;39.00;;;;;;215642;1293;22599;-57
2022/03/25 14:38:18;;;;;;;12.90;8.10;;;24.40;39.70;;;;;;215537;1293;22560;-57
2022/03/25 14:43:22;;;;;;;15.30;8.20;;;24.40;40.10;;;;;;215917;1293;22616;-59
2022/03/25 14:48:28;;;;;;;13.70;8.30;;;24.30;40.40;;;;;;216013;1292;22582;-61
2022/03/25 14:53:31;;;;;;;11.00;8.00;;;24.30;40.50;;;;;;215956;1294;25568;-55
2022/03/25 14:58:35;;;;;;;12.10;7.90;;;24.30;41.00;;;;;;215592;1293;22618;-56
2022/03/25 15:03:39;;;;;;;17.00;7.50;;;24.20;40.50;;;;;;215659;1293;25365;-57
2022/03/25 15:08:44;;;;;;;11.90;7.00;;;24.20;40.80;;;;;;215817;1293;22610;-56
2022/03/25 15:13:49;;;;;;;14.40;7.20;;;24.20;40.60;;;;;;215366;1295;22607;-55
2022/03/25 15:18:57;;;;;;;9.90;7.30;;;24.10;40.70;;;;;;215231;1296;24329;-56
2022/03/25 15:24:02;;;;;;;9.60;6.40;;;24.10;40.90;;;;;;216115;1294;22586;-56
2022/03/25 15:34:26;;;;;;;9.70;6.80;;;24.00;41.00;;;;;;216109;1294;22569;-53
2022/03/25 15:34:36;;;;;;;9.60;6.60;;;24.00;41.30;;;;;;215449;1293;22611;-56
2022/03/25 15:40:03;;;;;;;12.10;7.40;;;24.00;41.40;;;;;;215203;1296;24304;-54
2022/03/25 15:45:09;;;;;;;10.60;6.80;;;23.90;41.00;;;;;;215854;1293;25374;-55
2022/03/25 15:50:14;;;;;;;11.10;6.90;;;23.90;41.20;;;;;;215968;1294;25608;-55
2022/03/25 15:55:33;;;;;;;24.90;8.60;;;23.90;40.60;;;;;;215455;1293;22793;-50
2022/03/25 16:00:40;;;;;;;17.50;7.50;;;23.90;41.70;;;;;;214846;1293;24233;-52
2022/03/25 16:05:49;;;;;;;15.50;7.10;;;23.80;41.60;;;;;;222907;1292;23058;-47
2022/03/25 16:10:56;;;;;;;20.10;8.30;;;23.90;42.00;;;;;;222769;1293;22376;-54
2022/03/25 16:16:03;;;;;;;17.10;6.90;;;23.80;42.50;;;;;;222823;1295;22208;-49
2022/03/25 16:21:07;;;;;;;15.60;7.60;;;23.90;43.20;;;;;;222915;1296;23212;-48
2022/03/25 16:26:22;;;;;;;17.30;6.70;;;23.90;43.00;;;;;;222771;1292;22363;-51
2022/03/25 16:31:40;;;;;;;13.70;7.50;;;23.90;42.90;;;;;;222508;1295;22450;-50
2022/03/25 16:37:13;;;;;;;17.90;7.70;;;23.90;42.80;;;;;;222413;1295;22512;-50
2022/03/25 16:42:17;;;;;;;17.40;7.20;;;23.90;42.90;;;;;;222773;1293;22394;-51
2022/03/25 16:47:33;;;;;;;21.80;8.60;;;23.90;42.90;;;;;;219054;1292;368057;-47
2022/03/25 16:52:50;;;;;;;21.00;7.90;;;23.80;43.00;;;;;;215976;1294;22586;-49
2022/03/25 16:57:56;;;;;;;26.20;7.50;;;23.80;42.80;;;;;;215352;1296;22622;-49
2022/03/25 17:03:01;;;;;;;28.40;6.90;;;23.80;42.70;;;;;;215824;1293;25706;-49
2022/03/25 17:08:12;;;;;;;18.40;7.90;;;23.80;42.40;;;;;;215187;1296;24497;-44
2022/03/25 17:13:17;;;;;;;30.20;8.00;;;23.70;42.30;;;;;;215533;1294;24265;-46
2022/03/25 17:18:20;;;;;;;29.00;7.10;;;23.70;43.00;;;;;;216020;1294;24280;-47
2022/03/25 17:23:24;;;;;;;20.50;7.40;;;23.70;42.60;;;;;;215892;1294;23421;-48
2022/03/25 17:28:52;;;;;;;26.80;7.90;;;23.70;43.00;;;;;;215140;1296;24303;-45
2022/03/25 17:34:13;;;;;;;30.80;8.00;;;23.70;42.80;;;;;;215824;1293;24468;-49
2022/03/25 17:39:17;;;;;;;23.20;7.80;;;23.60;42.80;;;;;;215243;1293;24274;-51
2022/03/25 17:44:21;;;;;;;33.70;7.90;;;23.60;43.00;;;;;;223188;1292;22458;-50
2022/03/25 17:49:26;;;;;;;26.90;8.60;;;23.60;43.00;;;;;;222758;1293;22443;-52
2022/03/25 17:54:32;;;;;;;39.90;9.30;;;23.60;42.80;;;;;;220941;1293;26914;-49
2022/03/25 17:59:36;;;;;;;27.40;7.60;;;23.60;43.20;;;;;;215641;1293;24447;-50
2022/03/25 18:04:42;;;;;;;36.80;8.70;;;23.60;42.60;;;;;;215646;1294;23984;-47
2022/03/25 18:09:46;;;;;;;58.50;11.20;;;23.50;43.10;;;;;;215995;1293;22815;-50
2022/03/25 18:14:50;;;;;;;42.10;9.70;;;23.60;42.90;;;;;;215570;1294;24540;-51
2022/03/25 18:20:07;;;;;;;44.20;9.30;;;23.50;42.40;;;;;;215053;1293;26170;-48
2022/03/25 18:25:20;;;;;;;44.90;8.70;;;23.50;42.40;;;;;;215579;1293;25621;-52
2022/03/25 18:30:39;;;;;;;27.70;8.40;;;23.50;42.40;;;;;;215702;1294;24275;-47
2022/03/25 18:35:43;;;;;;;30.70;7.90;;;23.50;43.00;;;;;;215630;1293;22583;-48
2022/03/25 18:40:47;;;;;;;25.40;7.70;;;23.40;43.20;;;;;;215830;1294;24104;-48
2022/03/25 18:45:51;;;;;;;30.10;7.60;;;23.40;43.30;;;;;;215704;1294;22673;-50
2022/03/25 18:50:55;;;;;;;30.90;8.80;;;23.30;43.10;;;;;;215788;1293;25400;-49
2022/03/25 18:55:59;;;;;;;26.30;7.80;;;23.30;43.30;;;;;;215611;1296;25352;-48
2022/03/25 19:01:04;;;;;;;27.40;7.40;;;23.30;43.20;;;;;;215945;1294;22897;-49
2022/03/25 19:06:13;;;;;;;22.40;7.80;;;23.30;43.10;;;;;;215503;1294;25676;-51
2022/03/25 19:11:20;;;;;;;27.20;9.00;;;23.30;42.50;;;;;;215763;1294;23954;-48
2022/03/25 19:16:26;;;;;;;27.80;10.40;;;23.20;42.80;;;;;;215081;1293;24361;-47
2022/03/25 19:21:35;;;;;;;23.40;9.20;;;23.20;42.60;;;;;;215446;1296;22573;-50
2022/03/25 19:26:45;;;;;;;23.70;8.80;;;23.20;42.60;;;;;;215883;1294;25221;-54
2022/03/25 19:31:50;;;;;;;16.70;8.50;;;23.20;42.80;;;;;;215548;1294;22572;-53
2022/03/25 19:36:54;;;;;;;21.00;8.60;;;23.20;42.90;;;;;;215659;1293;24360;-49
2022/03/25 19:42:09;;;;;;;21.90;9.10;;;23.10;43.00;;;;;;215101;1296;22733;-49
2022/03/25 19:47:27;;;;;;;20.10;8.40;;;23.10;43.30;;;;;;215532;1294;22582;-52
2022/03/25 19:52:32;;;;;;;14.40;7.50;;;23.00;43.50;;;;;;215736;1294;22589;-50
2022/03/25 19:57:47;;;;;;;24.70;9.00;;;23.00;43.60;;;;;;215780;1294;22781;-51
2022/03/25 20:03:22;;;;;;;21.30;8.50;;;23.00;43.80;;;;;;215147;1297;22991;-51
2022/03/25 20:08:50;;;;;;;20.90;9.10;;;23.00;44.50;;;;;;215255;1294;22753;-57
2022/03/25 20:14:06;;;;;;;15.70;7.80;;;23.00;44.20;;;;;;215193;1293;26568;-52
2022/03/25 20:19:11;;;;;;;20.70;8.20;;;22.90;44.10;;;;;;215296;1297;24278;-47
2022/03/25 20:24:17;;;;;;;18.00;7.80;;;22.80;44.30;;;;;;215545;1294;24297;-50
2022/03/25 20:29:36;;;;;;;17.40;8.70;;;22.90;44.50;;;;;;215272;1293;25624;-53
2022/03/25 20:34:50;;;;;;;17.20;8.90;;;22.80;45.00;;;;;;215383;1294;24149;-48
2022/03/25 20:40:01;;;;;;;18.10;7.80;;;22.80;45.10;;;;;;215412;1299;22638;-46
2022/03/25 20:45:07;;;;;;;22.20;8.90;;;22.70;44.70;;;;;;215678;1294;25293;-49
2022/03/25 20:50:12;;;;;;;20.50;9.40;;;22.70;44.70;;;;;;215163;1294;25714;-51
2022/03/25 20:55:16;;;;;;;17.40;8.60;;;22.70;44.70;;;;;;215092;1294;24387;-47
2022/03/25 21:00:24;;;;;;;15.80;8.70;;;22.60;44.80;;;;;;215016;1297;22611;-46
2022/03/25 21:05:34;;;;;;;19.30;7.90;;;22.70;44.90;;;;;;215401;1293;23979;-49
2022/03/25 21:10:38;;;;;;;16.50;7.80;;;22.60;45.10;;;;;;215584;1294;22570;-49
2022/03/25 21:15:43;;;;;;;12.80;8.10;;;22.60;44.90;;;;;;215769;1296;23102;-46
2022/03/25 21:20:48;;;;;;;13.80;8.10;;;22.60;45.00;;;;;;215899;1294;22586;-50
2022/03/25 21:26:16;;;;;;;14.30;7.90;;;22.50;44.90;;;;;;215823;1294;23508;-53
2022/03/25 21:31:27;;;;;;;22.20;9.10;;;22.50;45.00;;;;;;215239;1293;22597;-59
2022/03/25 21:36:36;;;;;;;19.30;8.00;;;22.50;45.10;;;;;;215869;1294;22593;-46
2022/03/25 21:42:08;;;;;;;16.60;8.70;;;22.50;45.10;;;;;;215303;1293;24300;-49
2022/03/25 21:47:28;;;;;;;20.00;8.40;;;22.70;44.80;;;;;;215175;1294;25372;-49
2022/03/25 21:52:51;;;;;;;15.90;9.20;;;23.00;44.10;;;;;;215728;1293;24215;-51
2022/03/25 21:58:05;;;;;;;16.70;9.20;;;23.30;43.60;;;;;;215420;1293;25672;-48
2022/03/25 22:03:09;;;;;;;14.20;8.60;;;23.60;43.20;;;;;;215615;1292;24289;-48
2022/03/25 22:08:13;;;;;;;15.00;9.20;;;23.80;43.10;;;;;;215796;1293;26618;-48
2022/03/25 22:13:20;;;;;;;16.20;8.90;;;23.80;42.50;;;;;;215682;1294;22727;-48
2022/03/25 22:18:25;;;;;;;17.80;9.50;;;23.90;42.40;;;;;;216143;1294;22646;-51
2022/03/25 22:23:30;;;;;;;18.90;9.10;;;24.00;42.60;;;;;;216011;1293;24469;-49
2022/03/25 22:28:34;;;;;;;13.20;8.30;;;24.00;42.40;;;;;;216142;1292;26539;-48
2022/03/25 22:33:38;;;;;;;18.80;10.30;;;24.10;42.60;;;;;;216028;1294;25165;-50
2022/03/25 22:38:43;;;;;;;16.30;9.50;;;24.10;42.80;;;;;;215682;1293;24485;-53
2022/03/25 22:43:47;;;;;;;19.90;10.60;;;24.20;42.50;;;;;;216219;1294;26536;-52
2022/03/25 22:48:58;;;;;;;15.20;9.60;;;24.20;42.40;;;;;;216044;1293;23967;-52
2022/03/25 22:54:08;;;;;;;18.50;11.10;;;24.20;42.60;;;;;;215913;1294;22692;-51
2022/03/25 22:59:12;;;;;;;22.90;10.90;;;24.20;42.30;;;;;;215933;1293;22640;-50
2022/03/25 23:04:16;;;;;;;16.50;10.90;;;24.20;42.20;;;;;;215713;1293;24530;-57
2022/03/25 23:09:20;;;;;;;16.70;10.90;;;24.10;42.40;;;;;;216067;1294;22840;-53
2022/03/25 23:14:24;;;;;;;18.00;11.00;;;24.00;42.70;;;;;;215739;1293;24309;-49
2022/03/25 23:19:28;;;;;;;20.30;12.10;;;23.90;42.90;;;;;;216123;1293;22600;-50
2022/03/25 23:24:31;;;;;;;18.30;11.20;;;23.80;42.90;;;;;;215998;1293;23940;-52
2022/03/25 23:29:35;;;;;;;20.70;12.50;;;23.70;43.70;;;;;;216060;1294;25510;-50
2022/03/25 23:34:39;;;;;;;21.70;12.90;;;23.60;43.40;;;;;;216050;1293;22601;-52
2022/03/25 23:39:43;;;;;;;22.30;12.50;;;23.50;43.70;;;;;;215620;1293;22611;-53
2022/03/25 23:44:46;;;;;;;18.10;12.20;;;23.40;43.70;;;;;;215767;1293;25374;-50
2022/03/25 23:49:50;;;;;;;22.30;13.10;;;23.30;44.20;;;;;;216024;1294;26641;-55
2022/03/25 23:54:54;;;;;;;19.10;12.30;;;23.20;44.30;;;;;;215564;1296;25297;-52
2022/03/25 23:59:59;;;;;;;21.70;12.80;;;23.20;44.00;;;;;;215767;1293;22592;-53
